createdAt,value
2023-01-13T00:01:44.689Z,8.73
2023-01-13T00:04:13.254Z,8.76
2023-01-13T00:06:42.399Z,8.78
2023-01-13T00:09:11.460Z,8.80
2023-01-13T00:11:40.140Z,8.79
2023-01-13T00:14:09.118Z,8.78
2023-01-13T00:16:39.370Z,8.77
2023-01-13T00:19:07.970Z,8.77
2023-01-13T00:21:37.536Z,8.77
2023-01-13T00:24:07.090Z,8.77
2023-01-13T00:26:36.313Z,8.78
2023-01-13T00:29:05.371Z,8.77
2023-01-13T00:31:34.348Z,8.76
2023-01-13T00:34:03.313Z,8.76
2023-01-13T00:36:32.456Z,8.75
2023-01-13T00:39:01.557Z,8.73
2023-01-13T00:41:50.356Z,8.71
2023-01-13T00:44:19.693Z,8.70
2023-01-13T00:46:48.437Z,8.71
2023-01-13T00:49:17.508Z,8.71
2023-01-13T00:51:59.999Z,8.71
2023-01-13T00:54:51.579Z,8.72
2023-01-13T00:57:21.037Z,8.71
2023-01-13T00:59:49.805Z,8.71
2023-01-13T01:02:18.941Z,8.69
2023-01-13T01:04:48.324Z,8.67
2023-01-13T01:07:17.017Z,8.65
2023-01-13T01:09:45.601Z,8.64
2023-01-13T01:12:15.010Z,8.63
2023-01-13T01:14:43.668Z,8.62
2023-01-13T01:17:12.292Z,8.63
2023-01-13T01:19:42.891Z,8.62
2023-01-13T01:22:11.529Z,8.61
2023-01-13T01:24:42.996Z,8.60
2023-01-13T01:27:11.758Z,8.59
2023-01-13T01:29:40.344Z,8.59
2023-01-13T01:32:09.345Z,8.58
2023-01-13T01:34:39.762Z,8.59
2023-01-13T01:37:08.654Z,8.60
2023-01-13T01:39:37.421Z,8.61
2023-01-13T01:42:24.859Z,8.62
2023-01-13T01:45:11.045Z,8.62
2023-01-13T01:47:41.061Z,8.61
2023-01-13T01:50:11.239Z,8.61
2023-01-13T01:52:51.449Z,8.60
2023-01-13T01:55:23.382Z,8.59
2023-01-13T01:57:55.392Z,8.62
2023-01-13T02:00:27.344Z,8.64
2023-01-13T02:02:58.066Z,8.66
2023-01-13T02:05:27.150Z,8.68
2023-01-13T02:07:58.702Z,8.70
2023-01-13T02:10:30.432Z,8.70
2023-01-13T02:13:06.773Z,8.70
2023-01-13T02:16:01.610Z,8.72
2023-01-13T02:18:36.258Z,8.75
2023-01-13T02:21:08.307Z,8.78
2023-01-13T02:24:38.120Z,8.81
2023-01-13T02:27:25.656Z,8.82
2023-01-13T02:30:33.758Z,8.82
2023-01-13T02:33:23.677Z,8.79
2023-01-13T02:36:27.566Z,8.77
2023-01-13T02:39:33.773Z,8.77
2023-01-13T02:42:41.639Z,8.77
2023-01-13T02:45:19.441Z,8.77
2023-01-13T02:47:51.253Z,8.77
2023-01-13T02:50:25.924Z,8.76
2023-01-13T02:53:08.847Z,8.74
2023-01-13T02:55:46.811Z,8.72
2023-01-13T02:58:20.286Z,8.69
2023-01-13T03:00:50.024Z,8.68
2023-01-13T03:03:18.787Z,8.67
2023-01-13T03:05:50.263Z,8.67
2023-01-13T03:08:48.510Z,8.66
2023-01-13T03:11:20.198Z,8.66
2023-01-13T03:14:13.015Z,8.65
2023-01-13T03:16:59.995Z,8.65
2023-01-13T03:19:43.296Z,8.64
2023-01-13T03:22:16.448Z,8.63
2023-01-13T03:24:50.591Z,8.62
2023-01-13T03:27:42.699Z,8.63
2023-01-13T03:30:28.583Z,8.64
2023-01-13T03:33:05.417Z,8.66
2023-01-13T03:35:48.478Z,8.67
2023-01-13T03:38:29.128Z,8.68
2023-01-13T03:41:02.039Z,8.69
2023-01-13T03:43:59.220Z,8.68
2023-01-13T03:46:39.312Z,8.68
2023-01-13T03:49:10.852Z,8.69
2023-01-13T03:51:44.001Z,8.71
2023-01-13T03:54:15.864Z,8.73
2023-01-13T03:56:52.541Z,8.75
2023-01-13T03:59:27.735Z,8.77
2023-01-13T04:01:59.609Z,8.78
2023-01-13T04:04:44.182Z,8.76
2023-01-13T04:07:17.694Z,8.72
2023-01-13T04:10:02.018Z,8.69
2023-01-13T04:12:55.683Z,8.66
2023-01-13T04:15:28.468Z,8.63
2023-01-13T04:18:14.579Z,8.63
2023-01-13T04:20:45.889Z,8.63
2023-01-13T04:23:15.470Z,8.62
2023-01-13T04:25:45.591Z,8.61
2023-01-13T04:28:15.406Z,8.60
2023-01-13T04:30:44.901Z,8.58
2023-01-13T04:33:14.760Z,8.55
2023-01-13T04:35:45.617Z,8.53
2023-01-13T04:38:17.646Z,8.53
2023-01-13T04:40:47.435Z,8.53
2023-01-13T04:43:16.642Z,8.54
2023-01-13T04:45:46.715Z,8.55
2023-01-13T04:48:31.003Z,8.56
2023-01-13T04:51:00.058Z,8.57
2023-01-13T04:53:28.816Z,8.56
2023-01-13T04:55:57.476Z,8.56
2023-01-13T04:58:31.110Z,8.56
2023-01-13T05:01:05.102Z,8.57
2023-01-13T05:03:34.194Z,8.59
2023-01-13T05:06:03.174Z,8.62
2023-01-13T05:08:31.852Z,8.64
2023-01-13T05:11:02.073Z,8.67
2023-01-13T05:13:49.560Z,8.69
2023-01-13T05:16:40.140Z,8.71
2023-01-13T05:19:08.573Z,8.72
2023-01-13T05:22:07.191Z,8.73
2023-01-13T05:24:54.651Z,8.73
2023-01-13T05:27:24.196Z,8.74
2023-01-13T05:29:53.041Z,8.75
2023-01-13T05:32:22.505Z,8.74
2023-01-13T05:34:51.590Z,8.75
2023-01-13T05:37:20.395Z,8.76
2023-01-13T05:40:08.132Z,8.74
2023-01-13T05:42:55.333Z,8.73
2023-01-13T05:45:24.889Z,8.71
2023-01-13T05:47:53.864Z,8.69
2023-01-13T05:50:22.477Z,8.69
2023-01-13T05:52:52.277Z,8.70
2023-01-13T05:55:21.146Z,8.72
2023-01-13T05:57:49.734Z,8.76
2023-01-13T06:00:19.152Z,8.78
2023-01-13T06:02:48.706Z,8.78
2023-01-13T06:05:17.348Z,8.77
2023-01-13T06:07:46.294Z,8.76
2023-01-13T06:10:15.495Z,8.75
2023-01-13T06:12:44.220Z,8.77
2023-01-13T06:15:13.167Z,8.78
2023-01-13T06:17:42.572Z,8.81
2023-01-13T06:20:14.390Z,8.82
2023-01-13T06:22:46.346Z,8.84
2023-01-13T06:25:47.384Z,8.86
2023-01-13T06:28:16.419Z,8.87
2023-01-13T06:30:56.648Z,8.86
2023-01-13T06:33:37.360Z,8.84
2023-01-13T06:36:12.972Z,8.84
2023-01-13T06:38:45.590Z,8.84
2023-01-13T06:41:15.067Z,8.83
2023-01-13T06:43:44.032Z,8.83
2023-01-13T06:46:12.569Z,8.84
2023-01-13T06:48:41.569Z,8.83
2023-01-13T06:51:10.523Z,8.82
2023-01-13T06:53:39.180Z,8.82
2023-01-13T06:56:08.249Z,8.81
2023-01-13T06:58:37.499Z,8.82
2023-01-13T07:01:06.414Z,8.83
2023-01-13T07:03:35.432Z,8.85
2023-01-13T07:06:04.492Z,8.86
2023-01-13T07:08:33.477Z,8.88
2023-01-13T07:11:03.245Z,8.87
2023-01-13T07:13:50.574Z,8.86
2023-01-13T07:16:19.553Z,8.85
2023-01-13T07:18:48.442Z,8.87
2023-01-13T07:21:20.114Z,8.89
2023-01-13T07:23:49.020Z,8.92
2023-01-13T07:26:17.898Z,8.95
2023-01-13T07:28:46.476Z,8.98
2023-01-13T07:31:18.011Z,8.99
2023-01-13T07:33:47.823Z,9.01
2023-01-13T07:36:16.833Z,9.02
2023-01-13T07:38:45.614Z,9.03
2023-01-13T07:41:35.571Z,9.05
2023-01-13T07:44:07.825Z,9.08
2023-01-13T07:46:37.892Z,9.11
2023-01-13T07:49:08.357Z,9.15
2023-01-13T07:51:39.476Z,9.18
2023-01-13T07:54:08.490Z,9.22
2023-01-13T07:56:37.238Z,9.24
2023-01-13T07:59:06.324Z,9.25
2023-01-13T08:01:35.321Z,9.24
2023-01-13T08:04:03.942Z,9.23
2023-01-13T08:06:33.323Z,9.24
2023-01-13T08:09:02.220Z,9.24
2023-01-13T08:11:30.892Z,9.25
2023-01-13T08:14:00.012Z,9.26
2023-01-13T08:16:28.789Z,9.29
2023-01-13T08:19:06.120Z,9.32
2023-01-13T08:21:35.162Z,9.35
2023-01-13T08:24:04.223Z,9.37
2023-01-13T08:26:33.485Z,9.39
2023-01-13T08:29:02.755Z,9.40
2023-01-13T08:31:31.473Z,9.42
2023-01-13T08:34:00.870Z,9.46
2023-01-13T08:36:29.842Z,9.50
2023-01-13T08:38:58.578Z,9.52
2023-01-13T08:41:46.743Z,9.52
2023-01-13T08:44:16.128Z,9.51
2023-01-13T08:46:44.863Z,9.52
2023-01-13T08:49:13.899Z,9.54
2023-01-13T08:51:42.833Z,9.56
2023-01-13T08:54:12.470Z,9.58
2023-01-13T08:56:43.551Z,9.62
2023-01-13T08:59:14.121Z,9.64
2023-01-13T09:01:43.507Z,9.66
2023-01-13T09:04:18.760Z,9.67
2023-01-13T09:06:49.684Z,9.69
2023-01-13T09:09:18.780Z,9.72
2023-01-13T09:12:10.275Z,9.75
2023-01-13T09:14:40.293Z,9.78
2023-01-13T09:17:11.368Z,9.81
2023-01-13T09:19:41.565Z,9.84
2023-01-13T09:22:17.035Z,9.88
2023-01-13T09:24:47.319Z,9.90
2023-01-13T09:27:16.082Z,9.94
2023-01-13T09:29:44.689Z,10.00
2023-01-13T09:32:14.259Z,10.05
2023-01-13T09:35:01.365Z,10.14
2023-01-13T09:37:34.787Z,10.22
2023-01-13T09:40:14.776Z,10.28
2023-01-13T09:43:31.577Z,10.34
2023-01-13T09:46:06.943Z,10.39
2023-01-13T09:48:52.489Z,10.40
2023-01-13T09:51:36.593Z,10.38
2023-01-13T09:54:25.665Z,10.36
2023-01-13T09:56:54.547Z,10.34
2023-01-13T09:59:24.541Z,10.36
2023-01-13T10:02:16.505Z,10.43
2023-01-13T10:05:13.068Z,10.57
2023-01-13T10:07:49.613Z,10.69
2023-01-13T10:10:54.027Z,10.79
2023-01-13T10:13:30.318Z,10.92
2023-01-13T10:16:11.699Z,11.03
2023-01-13T10:19:02.667Z,11.10
2023-01-13T10:21:50.305Z,11.11
2023-01-13T10:24:45.419Z,11.11
2023-01-13T10:27:36.305Z,11.10
2023-01-13T10:30:34.887Z,11.14
2023-01-13T10:33:12.860Z,11.17
2023-01-13T10:35:59.757Z,11.21
2023-01-13T10:38:39.232Z,11.27
2023-01-13T10:41:20.261Z,11.36
2023-01-13T10:43:52.081Z,11.46
2023-01-13T10:46:21.234Z,11.56
2023-01-13T10:48:56.108Z,11.64
2023-01-13T10:51:40.123Z,11.71
2023-01-13T10:54:11.859Z,11.77
2023-01-13T10:56:42.792Z,11.82
2023-01-13T10:59:29.613Z,11.84
2023-01-13T11:02:25.910Z,11.87
2023-01-13T11:05:29.665Z,11.82
2023-01-13T11:08:20.464Z,11.73
2023-01-13T11:10:52.782Z,11.64
2023-01-13T11:14:15.361Z,11.60
2023-01-13T11:16:53.523Z,11.62
2023-01-13T11:19:28.148Z,11.68
2023-01-13T11:22:04.781Z,11.77
2023-01-13T11:24:42.752Z,11.87
2023-01-13T11:27:30.704Z,11.94
2023-01-13T11:30:18.852Z,11.96
2023-01-13T11:33:01.779Z,12.01
2023-01-13T11:35:34.880Z,12.05
2023-01-13T11:38:18.902Z,12.07
2023-01-13T11:40:50.337Z,12.04
2023-01-13T11:43:29.944Z,12.00
2023-01-13T11:46:01.292Z,11.93
2023-01-13T11:48:33.573Z,11.88
2023-01-13T11:51:14.495Z,11.83
2023-01-13T11:54:05.196Z,11.76
2023-01-13T11:57:02.888Z,11.67
2023-01-13T12:00:01.445Z,11.62
2023-01-13T12:03:12.037Z,11.63
2023-01-13T12:05:48.761Z,11.69
2023-01-13T12:08:55.357Z,11.75
2023-01-13T12:11:30.372Z,11.80
2023-01-13T12:14:07.306Z,11.85
2023-01-13T12:16:48.896Z,11.89
2023-01-13T12:19:25.840Z,11.90
2023-01-13T12:22:09.106Z,11.86
2023-01-13T12:24:53.789Z,11.79
2023-01-13T12:28:05.082Z,11.73
2023-01-13T12:30:51.765Z,11.71
2023-01-13T12:33:45.484Z,11.68
2023-01-13T12:37:08.564Z,11.65
2023-01-13T12:39:40.104Z,11.60
2023-01-13T12:43:01.056Z,11.54
2023-01-13T12:45:35.211Z,11.54
2023-01-13T12:48:08.503Z,11.56
2023-01-13T12:50:41.367Z,11.56
2023-01-13T12:53:34.784Z,11.51
2023-01-13T12:56:27.713Z,11.39
2023-01-13T12:59:32.628Z,11.27
2023-01-13T13:02:16.057Z,11.19
2023-01-13T13:04:53.692Z,11.12
2023-01-13T13:07:59.040Z,11.07
2023-01-13T13:10:48.391Z,11.02
2023-01-13T13:13:44.938Z,10.99
2023-01-13T13:16:26.155Z,10.96
2023-01-13T13:19:22.909Z,10.93
2023-01-13T13:22:14.492Z,10.90
2023-01-13T13:25:03.603Z,10.87
2023-01-13T13:27:32.606Z,10.86
2023-01-13T13:30:10.146Z,10.84
2023-01-13T13:33:07.695Z,10.83
2023-01-13T13:36:14.032Z,10.80
2023-01-13T13:39:07.557Z,10.79
2023-01-13T13:41:55.961Z,10.78
2023-01-13T13:45:01.847Z,10.78
2023-01-13T13:47:38.229Z,10.77
2023-01-13T13:50:14.216Z,10.75
2023-01-13T13:52:52.022Z,10.70
2023-01-13T13:55:24.842Z,10.64
2023-01-13T13:57:56.256Z,10.61
2023-01-13T14:00:32.114Z,10.58
2023-01-13T14:03:08.599Z,10.56
2023-01-13T14:05:38.906Z,10.56
2023-01-13T14:08:13.332Z,10.55
2023-01-13T14:10:45.452Z,10.49
2023-01-13T14:13:26.136Z,10.44
2023-01-13T14:16:02.528Z,10.35
2023-01-13T14:18:47.724Z,10.27
2023-01-13T14:21:30.228Z,10.20
2023-01-13T14:24:17.846Z,10.15
2023-01-13T14:26:51.991Z,10.07
2023-01-13T14:29:25.071Z,10.05
2023-01-13T14:31:55.446Z,10.08
2023-01-13T14:34:31.873Z,10.08
2023-01-13T14:37:03.425Z,10.08
2023-01-13T14:39:40.492Z,10.10
2023-01-13T14:42:17.647Z,10.08
2023-01-13T14:44:50.004Z,10.08
2023-01-13T14:47:32.908Z,10.08
2023-01-13T14:50:08.169Z,10.07
2023-01-13T14:52:48.408Z,10.04
2023-01-13T14:55:29.031Z,10.03
2023-01-13T14:58:33.253Z,10.02
2023-01-13T15:01:29.598Z,10.01
2023-01-13T15:04:25.637Z,10.02
2023-01-13T15:06:56.670Z,9.99
2023-01-13T15:09:41.341Z,9.97
2023-01-13T15:12:38.522Z,9.97
2023-01-13T15:15:25.609Z,9.94
2023-01-13T15:17:56.576Z,9.84
2023-01-13T15:20:25.852Z,9.70
2023-01-13T15:22:57.018Z,9.61
2023-01-13T15:25:26.027Z,9.54
2023-01-13T15:27:54.726Z,9.50
2023-01-13T15:30:26.150Z,9.49
2023-01-13T15:32:57.640Z,9.48
2023-01-13T15:35:29.122Z,9.47
2023-01-13T15:37:58.522Z,9.47
2023-01-13T15:40:32.827Z,9.44
2023-01-13T15:43:20.478Z,9.40
2023-01-13T15:46:08.131Z,9.38
2023-01-13T15:48:38.249Z,9.37
2023-01-13T15:51:07.368Z,9.35
2023-01-13T15:53:37.789Z,9.33
2023-01-13T15:56:29.932Z,9.32
2023-01-13T15:58:58.749Z,9.29
2023-01-13T16:01:27.557Z,9.35
2023-01-13T16:03:56.623Z,9.44
2023-01-13T16:06:32.947Z,9.52
2023-01-13T16:09:03.583Z,9.47
2023-01-13T16:11:42.749Z,9.37
2023-01-13T16:14:19.456Z,9.26
2023-01-13T16:16:48.451Z,9.16
2023-01-13T16:19:17.454Z,9.10
2023-01-13T16:21:51.348Z,9.10
2023-01-13T16:24:20.695Z,9.09
2023-01-13T16:26:50.223Z,9.09
2023-01-13T16:29:19.079Z,9.08
2023-01-13T16:31:52.723Z,9.09
2023-01-13T16:34:28.925Z,9.10
2023-01-13T16:36:57.915Z,9.06
2023-01-13T16:39:27.336Z,8.99
2023-01-13T16:41:56.815Z,8.93
2023-01-13T16:44:25.980Z,8.90
2023-01-13T16:46:54.606Z,8.89
2023-01-13T16:49:23.749Z,8.92
2023-01-13T16:51:53.515Z,8.98
2023-01-13T16:54:22.335Z,9.01
2023-01-13T16:56:51.083Z,9.02
2023-01-13T16:59:22.252Z,8.96
2023-01-13T17:01:52.312Z,8.78
2023-01-13T17:04:23.908Z,8.67
2023-01-13T17:06:52.566Z,8.60
2023-01-13T17:09:25.110Z,8.57
2023-01-13T17:11:54.606Z,8.61
2023-01-13T17:14:24.479Z,8.63
2023-01-13T17:16:59.534Z,8.66
2023-01-13T17:19:28.456Z,8.68
2023-01-13T17:21:57.221Z,8.68
2023-01-13T17:24:27.339Z,8.70
2023-01-13T17:26:59.516Z,8.75
2023-01-13T17:29:31.001Z,8.72
2023-01-13T17:32:01.345Z,8.61
2023-01-13T17:34:30.438Z,8.53
2023-01-13T17:36:59.105Z,8.49
2023-01-13T17:39:31.664Z,8.42
2023-01-13T17:42:00.405Z,8.35
2023-01-13T17:44:29.579Z,8.27
2023-01-13T17:46:58.302Z,8.17
2023-01-13T17:49:26.922Z,8.06
2023-01-13T17:51:56.115Z,7.98
2023-01-13T17:54:25.390Z,7.93
2023-01-13T17:56:55.655Z,7.95
2023-01-13T17:59:24.585Z,8.01
2023-01-13T18:01:53.413Z,8.06
2023-01-13T18:04:26.051Z,8.04
2023-01-13T18:07:00.401Z,7.99
2023-01-13T18:09:30.454Z,8.00
2023-01-13T18:12:01.713Z,8.04
2023-01-13T18:14:30.566Z,8.08
2023-01-13T18:17:00.071Z,8.10
2023-01-13T18:19:48.391Z,8.08
2023-01-13T18:22:37.014Z,8.07
2023-01-13T18:25:30.845Z,8.06
2023-01-13T18:28:05.148Z,8.08
2023-01-13T18:30:36.848Z,8.12
2023-01-13T18:33:08.002Z,8.15
2023-01-13T18:35:42.053Z,8.15
2023-01-13T18:38:15.843Z,8.05
2023-01-13T18:40:48.445Z,7.84
2023-01-13T18:43:18.489Z,7.69
2023-01-13T18:45:52.720Z,7.57
2023-01-13T18:48:22.476Z,7.46
2023-01-13T18:50:58.339Z,7.41
2023-01-13T18:53:28.099Z,7.45
2023-01-13T18:56:00.788Z,7.48
2023-01-13T18:58:33.544Z,7.52
2023-01-13T19:01:03.887Z,7.55
2023-01-13T19:03:33.116Z,7.61
2023-01-13T19:06:04.963Z,7.64
2023-01-13T19:08:34.101Z,7.63
2023-01-13T19:11:07.831Z,7.63
2023-01-13T19:13:37.258Z,7.60
2023-01-13T19:16:09.357Z,7.56
2023-01-13T19:18:38.446Z,7.50
2023-01-13T19:21:08.638Z,7.45
2023-01-13T19:23:37.352Z,7.44
2023-01-13T19:26:09.606Z,7.39
2023-01-13T19:28:43.057Z,7.34
2023-01-13T19:31:12.704Z,7.21
2023-01-13T19:33:44.740Z,7.09
2023-01-13T19:36:15.218Z,6.98
2023-01-13T19:38:43.834Z,6.93
2023-01-13T19:41:33.175Z,6.91
2023-01-13T19:44:23.511Z,6.85
2023-01-13T19:46:53.560Z,6.82
2023-01-13T19:49:22.727Z,6.89
2023-01-13T19:51:52.862Z,7.00
2023-01-13T19:54:21.772Z,7.09
2023-01-13T19:56:57.254Z,7.16
2023-01-13T19:59:33.410Z,7.21
2023-01-13T20:02:05.396Z,7.22
2023-01-13T20:04:38.939Z,7.19
2023-01-13T20:07:08.540Z,7.14
2023-01-13T20:09:37.815Z,7.11
2023-01-13T20:12:14.534Z,7.07
2023-01-13T20:14:48.881Z,7.06
2023-01-13T20:17:20.846Z,7.06
2023-01-13T20:19:50.818Z,7.05
2023-01-13T20:22:20.694Z,7.05
2023-01-13T20:25:01.544Z,7.05
2023-01-13T20:27:41.809Z,7.05
2023-01-13T20:30:14.328Z,6.99
2023-01-13T20:32:46.498Z,6.87
2023-01-13T20:35:15.711Z,6.81
2023-01-13T20:37:54.863Z,6.72
2023-01-13T20:40:41.806Z,6.68
2023-01-13T20:43:35.806Z,6.66
2023-01-13T20:49:12.467Z,6.67
2023-01-13T20:51:42.556Z,6.72
2023-01-13T20:54:11.080Z,6.76
2023-01-13T20:56:42.145Z,6.78
2023-01-13T20:59:45.531Z,6.80
2023-01-13T21:02:24.700Z,6.79
2023-01-13T21:04:55.673Z,6.77
2023-01-13T21:07:24.877Z,6.75
2023-01-13T21:09:59.951Z,6.72
2023-01-13T21:12:48.045Z,6.71
2023-01-13T21:18:57.316Z,6.72
2023-01-13T21:21:28.617Z,6.74
2023-01-13T21:23:57.757Z,6.76
2023-01-13T21:26:27.959Z,6.79
2023-01-13T21:29:00.592Z,6.80
2023-01-13T21:31:31.072Z,6.81
2023-01-13T21:34:03.225Z,6.80
2023-01-13T21:36:35.349Z,6.81
2023-01-13T21:39:16.349Z,6.82
2023-01-13T21:42:04.234Z,6.81
2023-01-13T21:44:51.559Z,6.83
2023-01-13T21:47:41.782Z,6.86
2023-01-13T21:50:12.296Z,6.91
2023-01-13T21:52:44.779Z,6.95
2023-01-13T21:55:29.695Z,6.97
2023-01-13T21:58:10.077Z,6.98
2023-01-13T22:00:39.779Z,6.98
2023-01-13T22:03:09.867Z,6.97
2023-01-13T22:05:57.430Z,6.95
2023-01-13T22:08:26.599Z,6.94
2023-01-13T22:10:59.698Z,6.96
2023-01-13T22:13:51.941Z,7.00
2023-01-13T22:16:24.230Z,7.05
2023-01-13T22:18:53.260Z,7.09
2023-01-13T22:21:22.196Z,7.14
2023-01-13T22:23:51.061Z,7.17
2023-01-13T22:26:20.067Z,7.20
2023-01-13T22:28:48.657Z,7.21
2023-01-13T22:31:28.373Z,7.24
2023-01-13T22:33:57.167Z,7.25
2023-01-13T22:36:57.878Z,7.24
2023-01-13T22:39:27.053Z,7.22
2023-01-13T22:42:02.570Z,7.21
2023-01-13T22:44:33.194Z,7.20
2023-01-13T22:47:02.275Z,7.21
2023-01-13T22:49:34.185Z,7.20
2023-01-13T22:52:08.838Z,7.20
2023-01-13T22:54:39.818Z,7.17
2023-01-13T22:57:18.880Z,7.12
2023-01-13T23:00:00.465Z,7.06
2023-01-13T23:02:36.751Z,7.00
2023-01-13T23:05:07.504Z,6.96
2023-01-13T23:07:39.374Z,6.91
2023-01-13T23:10:12.622Z,6.87
2023-01-13T23:12:42.498Z,6.84
2023-01-13T23:27:53.920Z,6.83
2023-01-13T23:30:27.483Z,6.83
2023-01-13T23:36:04.714Z,6.81
2023-01-13T23:38:34.001Z,6.79
2023-01-13T23:41:31.814Z,6.80
2023-01-13T23:44:01.637Z,6.80
2023-01-13T23:46:38.017Z,6.81
2023-01-13T23:49:06.986Z,6.83
2023-01-13T23:54:37.059Z,6.87
2023-01-13T23:57:21.200Z,6.86
2023-01-13T23:59:55.285Z,6.82
